Aviation Digital Data Service (ADDS)

Output produced by METARs form (1749 UTC 21 September 2019)
found at http://aviationweather.gov/metar/data/
 
KBTR 211744Z 2118/2218 VRB03KT P6SM BKN035 BKN050 
     FM211900 10006KT P6SM VCTS FEW030CB SCT100 
     FM220000 12005KT P6SM FEW030 FEW070 
     FM220500 00000KT P6SM FEW025 FEW250 
     FM220900 00000KT P6SM FEW040 FEW250